KGLR/GLR METAR and TAF weather

Enter ICAO airport designator
Station Type Date Time Source
KGLR METAR 2022/01/29 12:53 UTC NOAA

KGLR 291253Z AUTO 18003KT 10SM BKN034 M16/M20 A3011 RMK AO2 SLP229 T11561200


Station Type Date Time Source
KGLR Decoded METAR 2022/01/29 12:53 UTC NOAA

GAYLORD REGIONAL AIRPORT, MI, United States (KGLR) 45-01N 84-41W 407M
Jan 29, 2022 - 07:53 AM EST / 2022.01.29 1253 UTC
Wind: from the S (180 degrees) at 3 MPH (3 KT):0
Visibility: 10 mile(s):0
Sky conditions: mostly cloudy
Temperature: 3.9 F (-15.6 C)
Dew Point: -4.0 F (-20.0 C)
Relative Humidity: 68%
Pressure (altimeter): 30.11 in. Hg (1019 hPa)
ob: KGLR 291253Z AUTO 18003KT 10SM BKN034 M16/M20 A3011 RMK AO2 SLP229 T11561200
cycle: 13

Station Type Date Time Source
KGLR TAF UTC NOAA

Error!

Example: see airport list